sensor_id;sensor_type;location;lat;lon;timestamp;P1;durP1;ratioP1;P2;durP2;ratioP2
51124;SDS011;37163;55.556;39.108;2023-04-07T00:01:44;15.48;;;8.90;;
51124;SDS011;37163;55.556;39.108;2023-04-07T00:04:10;11.45;;;7.15;;
51124;SDS011;37163;55.556;39.108;2023-04-07T00:06:37;11.30;;;5.35;;
51124;SDS011;37163;55.556;39.108;2023-04-07T00:09:03;8.82;;;4.70;;
51124;SDS011;37163;55.556;39.108;2023-04-07T00:11:29;6.05;;;3.38;;
51124;SDS011;37163;55.556;39.108;2023-04-07T00:13:56;5.75;;;2.45;;
51124;SDS011;37163;55.556;39.108;2023-04-07T00:16:22;6.13;;;3.15;;
51124;SDS011;37163;55.556;39.108;2023-04-07T00:18:48;5.63;;;2.35;;
51124;SDS011;37163;55.556;39.108;2023-04-07T00:21:15;4.18;;;2.17;;
51124;SDS011;37163;55.556;39.108;2023-04-07T00:23:41;5.25;;;2.47;;
51124;SDS011;37163;55.556;39.108;2023-04-07T00:26:07;3.15;;;1.52;;
51124;SDS011;37163;55.556;39.108;2023-04-07T00:28:34;3.00;;;1.38;;
51124;SDS011;37163;55.556;39.108;2023-04-07T00:31:01;4.10;;;1.35;;
51124;SDS011;37163;55.556;39.108;2023-04-07T00:33:27;3.50;;;1.40;;
51124;SDS011;37163;55.556;39.108;2023-04-07T00:35:53;3.30;;;1.50;;
51124;SDS011;37163;55.556;39.108;2023-04-07T00:38:22;3.33;;;1.30;;
51124;SDS011;37163;55.556;39.108;2023-04-07T00:40:48;3.35;;;1.55;;
51124;SDS011;37163;55.556;39.108;2023-04-07T00:43:15;3.30;;;1.63;;
51124;SDS011;37163;55.556;39.108;2023-04-07T00:45:42;3.08;;;1.40;;
51124;SDS011;37163;55.556;39.108;2023-04-07T00:48:10;3.35;;;1.35;;
51124;SDS011;37163;55.556;39.108;2023-04-07T00:50:36;4.70;;;1.20;;
51124;SDS011;37163;55.556;39.108;2023-04-07T00:53:03;4.43;;;1.30;;
51124;SDS011;37163;55.556;39.108;2023-04-07T00:55:30;2.53;;;1.25;;
51124;SDS011;37163;55.556;39.108;2023-04-07T00:57:56;2.10;;;1.00;;
51124;SDS011;37163;55.556;39.108;2023-04-07T01:00:23;1.80;;;0.80;;
51124;SDS011;37163;55.556;39.108;2023-04-07T01:03:03;4.63;;;1.42;;
51124;SDS011;37163;55.556;39.108;2023-04-07T01:05:45;1.55;;;0.93;;
51124;SDS011;37163;55.556;39.108;2023-04-07T01:10:59;3.00;;;1.20;;
51124;SDS011;37163;55.556;39.108;2023-04-07T01:16:19;2.83;;;1.30;;
51124;SDS011;37163;55.556;39.108;2023-04-07T01:18:51;4.03;;;1.10;;
51124;SDS011;37163;55.556;39.108;2023-04-07T01:21:20;2.67;;;1.30;;
51124;SDS011;37163;55.556;39.108;2023-04-07T01:26:29;3.25;;;1.10;;
51124;SDS011;37163;55.556;39.108;2023-04-07T01:31:41;1.92;;;0.95;;
51124;SDS011;37163;55.556;39.108;2023-04-07T01:34:09;2.42;;;1.20;;
51124;SDS011;37163;55.556;39.108;2023-04-07T01:36:36;2.00;;;1.17;;
51124;SDS011;37163;55.556;39.108;2023-04-07T01:39:02;3.20;;;1.15;;
51124;SDS011;37163;55.556;39.108;2023-04-07T01:41:29;3.63;;;1.23;;
51124;SDS011;37163;55.556;39.108;2023-04-07T01:43:56;3.42;;;1.10;;
51124;SDS011;37163;55.556;39.108;2023-04-07T01:46:22;2.38;;;0.88;;
51124;SDS011;37163;55.556;39.108;2023-04-07T01:48:49;3.60;;;1.35;;
51124;SDS011;37163;55.556;39.108;2023-04-07T01:51:16;4.50;;;1.58;;
51124;SDS011;37163;55.556;39.108;2023-04-07T01:53:44;3.22;;;1.20;;
51124;SDS011;37163;55.556;39.108;2023-04-07T01:56:10;3.70;;;1.23;;
51124;SDS011;37163;55.556;39.108;2023-04-07T01:58:37;4.75;;;1.05;;
51124;SDS011;37163;55.556;39.108;2023-04-07T02:01:06;2.45;;;1.20;;
51124;SDS011;37163;55.556;39.108;2023-04-07T02:06:26;3.67;;;1.25;;
51124;SDS011;37163;55.556;39.108;2023-04-07T02:08:58;2.20;;;1.00;;
51124;SDS011;37163;55.556;39.108;2023-04-07T02:11:26;3.42;;;1.40;;
51124;SDS011;37163;55.556;39.108;2023-04-07T02:13:59;2.75;;;1.05;;
51124;SDS011;37163;55.556;39.108;2023-04-07T02:16:47;3.08;;;1.10;;
51124;SDS011;37163;55.556;39.108;2023-04-07T02:19:14;1.90;;;1.08;;
51124;SDS011;37163;55.556;39.108;2023-04-07T02:21:41;7.07;;;1.52;;
51124;SDS011;37163;55.556;39.108;2023-04-07T02:24:10;4.20;;;1.45;;
51124;SDS011;37163;55.556;39.108;2023-04-07T02:26:36;4.40;;;1.20;;
51124;SDS011;37163;55.556;39.108;2023-04-07T02:29:03;1.27;;;0.80;;
51124;SDS011;37163;55.556;39.108;2023-04-07T02:31:30;3.75;;;1.27;;
51124;SDS011;37163;55.556;39.108;2023-04-07T02:33:59;2.80;;;1.20;;
51124;SDS011;37163;55.556;39.108;2023-04-07T02:36:25;3.05;;;1.13;;
51124;SDS011;37163;55.556;39.108;2023-04-07T02:38:52;3.42;;;1.20;;
51124;SDS011;37163;55.556;39.108;2023-04-07T02:41:18;2.95;;;1.08;;
51124;SDS011;37163;55.556;39.108;2023-04-07T02:43:46;3.55;;;1.20;;
51124;SDS011;37163;55.556;39.108;2023-04-07T02:46:12;2.92;;;1.42;;
51124;SDS011;37163;55.556;39.108;2023-04-07T02:48:38;2.58;;;1.00;;
51124;SDS011;37163;55.556;39.108;2023-04-07T02:51:05;2.80;;;1.10;;
51124;SDS011;37163;55.556;39.108;2023-04-07T02:53:31;5.90;;;1.77;;
51124;SDS011;37163;55.556;39.108;2023-04-07T02:55:57;2.95;;;1.63;;
51124;SDS011;37163;55.556;39.108;2023-04-07T02:58:24;4.90;;;1.52;;
51124;SDS011;37163;55.556;39.108;2023-04-07T03:00:50;3.70;;;1.52;;
51124;SDS011;37163;55.556;39.108;2023-04-07T03:03:22;1.95;;;1.17;;
51124;SDS011;37163;55.556;39.108;2023-04-07T03:08:56;5.53;;;1.90;;
51124;SDS011;37163;55.556;39.108;2023-04-07T03:11:22;3.17;;;1.48;;
51124;SDS011;37163;55.556;39.108;2023-04-07T03:13:49;4.13;;;1.67;;
51124;SDS011;37163;55.556;39.108;2023-04-07T03:16:15;2.50;;;1.30;;
51124;SDS011;37163;55.556;39.108;2023-04-07T03:18:55;6.40;;;1.75;;
51124;SDS011;37163;55.556;39.108;2023-04-07T03:21:22;5.25;;;0.90;;
51124;SDS011;37163;55.556;39.108;2023-04-07T03:23:48;2.90;;;0.95;;
51124;SDS011;37163;55.556;39.108;2023-04-07T03:26:15;3.45;;;1.30;;
51124;SDS011;37163;55.556;39.108;2023-04-07T03:28:42;1.60;;;0.90;;
51124;SDS011;37163;55.556;39.108;2023-04-07T03:31:08;3.67;;;1.00;;
51124;SDS011;37163;55.556;39.108;2023-04-07T03:33:34;2.50;;;1.10;;
51124;SDS011;37163;55.556;39.108;2023-04-07T03:36:01;4.00;;;1.40;;
51124;SDS011;37163;55.556;39.108;2023-04-07T03:38:29;9.60;;;1.08;;
51124;SDS011;37163;55.556;39.108;2023-04-07T03:40:59;2.05;;;1.10;;
51124;SDS011;37163;55.556;39.108;2023-04-07T03:43:26;2.63;;;1.15;;
51124;SDS011;37163;55.556;39.108;2023-04-07T03:45:52;1.95;;;1.02;;
51124;SDS011;37163;55.556;39.108;2023-04-07T03:48:20;1.63;;;0.95;;
51124;SDS011;37163;55.556;39.108;2023-04-07T03:50:57;2.63;;;1.08;;
51124;SDS011;37163;55.556;39.108;2023-04-07T03:53:23;1.38;;;0.90;;
51124;SDS011;37163;55.556;39.108;2023-04-07T03:55:51;2.45;;;1.23;;
51124;SDS011;37163;55.556;39.108;2023-04-07T03:58:36;6.00;;;1.23;;
51124;SDS011;37163;55.556;39.108;2023-04-07T04:01:03;1.15;;;0.80;;
51124;SDS011;37163;55.556;39.108;2023-04-07T04:03:30;2.90;;;0.93;;
51124;SDS011;37163;55.556;39.108;2023-04-07T04:06:09;2.10;;;0.80;;
51124;SDS011;37163;55.556;39.108;2023-04-07T04:08:35;2.50;;;1.13;;
51124;SDS011;37163;55.556;39.108;2023-04-07T04:11:02;3.72;;;0.95;;
51124;SDS011;37163;55.556;39.108;2023-04-07T04:13:35;2.38;;;0.90;;
51124;SDS011;37163;55.556;39.108;2023-04-07T04:16:04;3.45;;;0.95;;
51124;SDS011;37163;55.556;39.108;2023-04-07T04:18:33;2.65;;;1.20;;
51124;SDS011;37163;55.556;39.108;2023-04-07T04:21:00;2.08;;;1.10;;
51124;SDS011;37163;55.556;39.108;2023-04-07T04:23:26;3.17;;;1.25;;
51124;SDS011;37163;55.556;39.108;2023-04-07T04:25:55;2.92;;;1.05;;
51124;SDS011;37163;55.556;39.108;2023-04-07T04:28:22;3.75;;;1.35;;
51124;SDS011;37163;55.556;39.108;2023-04-07T04:30:49;2.97;;;1.17;;
51124;SDS011;37163;55.556;39.108;2023-04-07T04:33:16;2.28;;;1.00;;
51124;SDS011;37163;55.556;39.108;2023-04-07T04:35:54;2.45;;;1.05;;
51124;SDS011;37163;55.556;39.108;2023-04-07T04:38:21;3.20;;;1.23;;
51124;SDS011;37163;55.556;39.108;2023-04-07T04:40:55;3.33;;;1.08;;
51124;SDS011;37163;55.556;39.108;2023-04-07T04:43:26;2.70;;;1.20;;
51124;SDS011;37163;55.556;39.108;2023-04-07T04:45:54;2.80;;;1.35;;
51124;SDS011;37163;55.556;39.108;2023-04-07T04:48:24;3.70;;;1.55;;
51124;SDS011;37163;55.556;39.108;2023-04-07T04:50:52;5.45;;;1.48;;
51124;SDS011;37163;55.556;39.108;2023-04-07T04:53:19;2.55;;;1.15;;
51124;SDS011;37163;55.556;39.108;2023-04-07T04:55:52;2.60;;;1.20;;
51124;SDS011;37163;55.556;39.108;2023-04-07T04:58:27;3.30;;;1.30;;
51124;SDS011;37163;55.556;39.108;2023-04-07T05:00:56;7.03;;;1.48;;
51124;SDS011;37163;55.556;39.108;2023-04-07T05:03:28;2.55;;;1.30;;
51124;SDS011;37163;55.556;39.108;2023-04-07T05:05:58;2.58;;;1.13;;
51124;SDS011;37163;55.556;39.108;2023-04-07T05:08:24;2.50;;;1.00;;
51124;SDS011;37163;55.556;39.108;2023-04-07T05:10:52;3.22;;;1.15;;
51124;SDS011;37163;55.556;39.108;2023-04-07T05:13:22;5.15;;;1.38;;
51124;SDS011;37163;55.556;39.108;2023-04-07T05:15:50;1.98;;;1.38;;
51124;SDS011;37163;55.556;39.108;2023-04-07T05:18:17;4.00;;;1.17;;
51124;SDS011;37163;55.556;39.108;2023-04-07T05:20:44;2.00;;;1.20;;
51124;SDS011;37163;55.556;39.108;2023-04-07T05:23:11;1.60;;;0.90;;
51124;SDS011;37163;55.556;39.108;2023-04-07T05:25:39;3.05;;;0.90;;
51124;SDS011;37163;55.556;39.108;2023-04-07T05:28:05;3.65;;;1.40;;
51124;SDS011;37163;55.556;39.108;2023-04-07T05:30:31;2.47;;;1.20;;
51124;SDS011;37163;55.556;39.108;2023-04-07T05:32:58;3.45;;;1.20;;
51124;SDS011;37163;55.556;39.108;2023-04-07T05:35:43;3.17;;;1.10;;
51124;SDS011;37163;55.556;39.108;2023-04-07T05:38:11;3.25;;;1.10;;
51124;SDS011;37163;55.556;39.108;2023-04-07T05:40:39;2.08;;;1.23;;
51124;SDS011;37163;55.556;39.108;2023-04-07T05:43:09;4.50;;;1.73;;
51124;SDS011;37163;55.556;39.108;2023-04-07T05:45:35;2.63;;;1.17;;
51124;SDS011;37163;55.556;39.108;2023-04-07T05:48:02;6.95;;;2.55;;
51124;SDS011;37163;55.556;39.108;2023-04-07T05:50:39;3.55;;;1.67;;
51124;SDS011;37163;55.556;39.108;2023-04-07T05:53:09;3.20;;;1.40;;
51124;SDS011;37163;55.556;39.108;2023-04-07T05:55:36;4.13;;;1.50;;
51124;SDS011;37163;55.556;39.108;2023-04-07T05:58:05;2.33;;;1.13;;
51124;SDS011;37163;55.556;39.108;2023-04-07T06:00:32;3.47;;;1.30;;
51124;SDS011;37163;55.556;39.108;2023-04-07T06:03:08;6.70;;;2.97;;
51124;SDS011;37163;55.556;39.108;2023-04-07T06:05:46;2.72;;;1.33;;
51124;SDS011;37163;55.556;39.108;2023-04-07T06:08:13;5.07;;;2.65;;
51124;SDS011;37163;55.556;39.108;2023-04-07T06:10:39;4.88;;;2.17;;
51124;SDS011;37163;55.556;39.108;2023-04-07T06:13:06;4.22;;;1.98;;
51124;SDS011;37163;55.556;39.108;2023-04-07T06:15:33;4.00;;;2.20;;
51124;SDS011;37163;55.556;39.108;2023-04-07T06:17:59;4.05;;;1.70;;
51124;SDS011;37163;55.556;39.108;2023-04-07T06:20:26;3.88;;;1.50;;
51124;SDS011;37163;55.556;39.108;2023-04-07T06:22:54;3.72;;;0.98;;
51124;SDS011;37163;55.556;39.108;2023-04-07T06:25:20;3.10;;;1.30;;
51124;SDS011;37163;55.556;39.108;2023-04-07T06:27:47;3.03;;;1.55;;
51124;SDS011;37163;55.556;39.108;2023-04-07T06:30:13;1.15;;;0.90;;
51124;SDS011;37163;55.556;39.108;2023-04-07T06:32:40;2.58;;;1.20;;
51124;SDS011;37163;55.556;39.108;2023-04-07T06:35:07;2.63;;;1.33;;
51124;SDS011;37163;55.556;39.108;2023-04-07T06:37:33;4.57;;;1.73;;
51124;SDS011;37163;55.556;39.108;2023-04-07T06:40:00;2.28;;;1.23;;
51124;SDS011;37163;55.556;39.108;2023-04-07T06:42:28;4.63;;;1.63;;
51124;SDS011;37163;55.556;39.108;2023-04-07T06:45:08;3.20;;;2.05;;
51124;SDS011;37163;55.556;39.108;2023-04-07T06:47:35;4.68;;;1.27;;
51124;SDS011;37163;55.556;39.108;2023-04-07T06:50:01;3.53;;;1.40;;
51124;SDS011;37163;55.556;39.108;2023-04-07T06:52:28;3.08;;;1.10;;
51124;SDS011;37163;55.556;39.108;2023-04-07T06:54:55;2.50;;;1.40;;
51124;SDS011;37163;55.556;39.108;2023-04-07T06:57:21;5.43;;;1.83;;
51124;SDS011;37163;55.556;39.108;2023-04-07T06:59:48;4.15;;;2.30;;
51124;SDS011;37163;55.556;39.108;2023-04-07T07:02:14;3.95;;;1.95;;
51124;SDS011;37163;55.556;39.108;2023-04-07T07:04:40;1.88;;;1.20;;
51124;SDS011;37163;55.556;39.108;2023-04-07T07:07:07;2.78;;;1.02;;
51124;SDS011;37163;55.556;39.108;2023-04-07T07:09:33;2.88;;;1.02;;
51124;SDS011;37163;55.556;39.108;2023-04-07T07:11:59;2.92;;;1.27;;
51124;SDS011;37163;55.556;39.108;2023-04-07T07:14:27;2.65;;;1.30;;
51124;SDS011;37163;55.556;39.108;2023-04-07T07:16:53;3.92;;;1.77;;
51124;SDS011;37163;55.556;39.108;2023-04-07T07:19:19;4.38;;;1.50;;
51124;SDS011;37163;55.556;39.108;2023-04-07T07:21:46;3.67;;;1.50;;
51124;SDS011;37163;55.556;39.108;2023-04-07T07:24:12;3.97;;;1.40;;
51124;SDS011;37163;55.556;39.108;2023-04-07T07:26:39;3.95;;;1.88;;
51124;SDS011;37163;55.556;39.108;2023-04-07T07:29:06;1.38;;;1.02;;
51124;SDS011;37163;55.556;39.108;2023-04-07T07:31:32;2.67;;;1.13;;
51124;SDS011;37163;55.556;39.108;2023-04-07T07:33:59;2.45;;;1.08;;
51124;SDS011;37163;55.556;39.108;2023-04-07T07:36:25;3.40;;;1.05;;
51124;SDS011;37163;55.556;39.108;2023-04-07T07:38:52;2.00;;;1.08;;
51124;SDS011;37163;55.556;39.108;2023-04-07T07:41:19;4.45;;;1.63;;
51124;SDS011;37163;55.556;39.108;2023-04-07T07:44:04;2.28;;;1.20;;
51124;SDS011;37163;55.556;39.108;2023-04-07T07:46:30;3.75;;;1.42;;
51124;SDS011;37163;55.556;39.108;2023-04-07T07:48:57;5.07;;;1.15;;
51124;SDS011;37163;55.556;39.108;2023-04-07T07:51:23;1.95;;;0.98;;
51124;SDS011;37163;55.556;39.108;2023-04-07T07:53:50;2.25;;;1.40;;
51124;SDS011;37163;55.556;39.108;2023-04-07T07:56:17;2.40;;;1.13;;
51124;SDS011;37163;55.556;39.108;2023-04-07T07:58:43;2.28;;;1.23;;
51124;SDS011;37163;55.556;39.108;2023-04-07T08:01:09;2.88;;;1.10;;
51124;SDS011;37163;55.556;39.108;2023-04-07T08:03:36;2.00;;;1.00;;
51124;SDS011;37163;55.556;39.108;2023-04-07T08:06:03;1.55;;;0.98;;
51124;SDS011;37163;55.556;39.108;2023-04-07T08:08:29;4.40;;;1.67;;
51124;SDS011;37163;55.556;39.108;2023-04-07T08:10:56;1.50;;;0.80;;
51124;SDS011;37163;55.556;39.108;2023-04-07T08:13:23;2.05;;;1.10;;
51124;SDS011;37163;55.556;39.108;2023-04-07T08:15:49;2.08;;;0.95;;
51124;SDS011;37163;55.556;39.108;2023-04-07T08:18:16;2.58;;;1.00;;
51124;SDS011;37163;55.556;39.108;2023-04-07T08:20:42;2.75;;;1.50;;
51124;SDS011;37163;55.556;39.108;2023-04-07T08:23:09;1.77;;;0.80;;
51124;SDS011;37163;55.556;39.108;2023-04-07T08:25:35;2.20;;;1.30;;
51124;SDS011;37163;55.556;39.108;2023-04-07T08:28:01;1.98;;;0.90;;
51124;SDS011;37163;55.556;39.108;2023-04-07T08:30:28;3.03;;;1.13;;
51124;SDS011;37163;55.556;39.108;2023-04-07T09:17:57;5.00;;;1.17;;
51124;SDS011;37163;55.556;39.108;2023-04-07T09:20:24;1.83;;;1.15;;
51124;SDS011;37163;55.556;39.108;2023-04-07T09:22:50;4.22;;;1.00;;
51124;SDS011;37163;55.556;39.108;2023-04-07T09:25:18;2.85;;;1.42;;
51124;SDS011;37163;55.556;39.108;2023-04-07T09:27:56;3.95;;;1.40;;
51124;SDS011;37163;55.556;39.108;2023-04-07T09:30:27;2.85;;;0.98;;
51124;SDS011;37163;55.556;39.108;2023-04-07T09:32:54;3.10;;;1.23;;
51124;SDS011;37163;55.556;39.108;2023-04-07T09:42:47;2.03;;;1.08;;
51124;SDS011;37163;55.556;39.108;2023-04-07T09:45:22;3.60;;;1.30;;
51124;SDS011;37163;55.556;39.108;2023-04-07T09:47:52;2.65;;;1.13;;
51124;SDS011;37163;55.556;39.108;2023-04-07T09:50:32;3.85;;;1.90;;
51124;SDS011;37163;55.556;39.108;2023-04-07T09:53:04;8.75;;;3.03;;
51124;SDS011;37163;55.556;39.108;2023-04-07T09:55:30;5.10;;;2.60;;
51124;SDS011;37163;55.556;39.108;2023-04-07T09:57:58;14.68;;;7.03;;
51124;SDS011;37163;55.556;39.108;2023-04-07T10:00:24;5.68;;;1.90;;
51124;SDS011;37163;55.556;39.108;2023-04-07T10:02:51;3.33;;;1.20;;
51124;SDS011;37163;55.556;39.108;2023-04-07T10:05:17;4.10;;;1.00;;
51124;SDS011;37163;55.556;39.108;2023-04-07T10:07:47;2.60;;;1.13;;
51124;SDS011;37163;55.556;39.108;2023-04-07T10:10:14;4.25;;;2.38;;
51124;SDS011;37163;55.556;39.108;2023-04-07T10:12:41;3.08;;;1.58;;
51124;SDS011;37163;55.556;39.108;2023-04-07T10:15:08;4.18;;;1.58;;
51124;SDS011;37163;55.556;39.108;2023-04-07T10:17:39;4.38;;;1.88;;
51124;SDS011;37163;55.556;39.108;2023-04-07T10:20:05;2.80;;;1.10;;
51124;SDS011;37163;55.556;39.108;2023-04-07T10:22:32;3.03;;;1.65;;
51124;SDS011;37163;55.556;39.108;2023-04-07T10:25:07;2.58;;;1.48;;
51124;SDS011;37163;55.556;39.108;2023-04-07T10:27:38;2.35;;;1.13;;
51124;SDS011;37163;55.556;39.108;2023-04-07T10:30:11;2.28;;;1.17;;
51124;SDS011;37163;55.556;39.108;2023-04-07T10:32:48;4.38;;;1.30;;
51124;SDS011;37163;55.556;39.108;2023-04-07T10:35:16;4.63;;;2.30;;
51124;SDS011;37163;55.556;39.108;2023-04-07T10:38:16;1.77;;;0.93;;
51124;SDS011;37163;55.556;39.108;2023-04-07T10:40:38;1.70;;;1.20;;
51124;SDS011;37163;55.556;39.108;2023-04-07T10:43:06;2.25;;;1.27;;
51124;SDS011;37163;55.556;39.108;2023-04-07T10:48:17;1.98;;;1.02;;
51124;SDS011;37163;55.556;39.108;2023-04-07T10:50:44;2.85;;;0.93;;
51124;SDS011;37163;55.556;39.108;2023-04-07T10:53:12;2.53;;;1.13;;
51124;SDS011;37163;55.556;39.108;2023-04-07T10:58:16;3.10;;;1.02;;
51124;SDS011;37163;55.556;39.108;2023-04-07T11:03:34;7.93;;;3.22;;
51124;SDS011;37163;55.556;39.108;2023-04-07T11:06:06;3.88;;;1.60;;
51124;SDS011;37163;55.556;39.108;2023-04-07T11:08:37;2.22;;;1.10;;
51124;SDS011;37163;55.556;39.108;2023-04-07T11:11:05;3.38;;;1.40;;
51124;SDS011;37163;55.556;39.108;2023-04-07T11:13:41;1.88;;;1.10;;
51124;SDS011;37163;55.556;39.108;2023-04-07T11:16:11;2.00;;;1.00;;
51124;SDS011;37163;55.556;39.108;2023-04-07T11:18:39;5.30;;;1.20;;
51124;SDS011;37163;55.556;39.108;2023-04-07T11:21:06;2.63;;;1.35;;
51124;SDS011;37163;55.556;39.108;2023-04-07T11:23:39;3.22;;;1.17;;
51124;SDS011;37163;55.556;39.108;2023-04-07T11:26:06;2.78;;;1.20;;
51124;SDS011;37163;55.556;39.108;2023-04-07T11:28:34;2.05;;;1.00;;
51124;SDS011;37163;55.556;39.108;2023-04-07T11:31:11;2.83;;;1.13;;
51124;SDS011;37163;55.556;39.108;2023-04-07T11:33:37;2.60;;;1.13;;
51124;SDS011;37163;55.556;39.108;2023-04-07T11:36:05;2.03;;;1.15;;
51124;SDS011;37163;55.556;39.108;2023-04-07T11:38:35;3.45;;;1.27;;
51124;SDS011;37163;55.556;39.108;2023-04-07T11:41:09;2.35;;;0.98;;
51124;SDS011;37163;55.556;39.108;2023-04-07T11:43:38;3.20;;;1.83;;
51124;SDS011;37163;55.556;39.108;2023-04-07T11:48:40;2.30;;;1.38;;
51124;SDS011;37163;55.556;39.108;2023-04-07T11:51:15;0.80;;;0.80;;
51124;SDS011;37163;55.556;39.108;2023-04-07T11:53:45;1.40;;;0.95;;
51124;SDS011;37163;55.556;39.108;2023-04-07T11:56:13;2.75;;;1.20;;
51124;SDS011;37163;55.556;39.108;2023-04-07T11:58:49;2.45;;;1.00;;
51124;SDS011;37163;55.556;39.108;2023-04-07T12:01:17;2.00;;;1.13;;
51124;SDS011;37163;55.556;39.108;2023-04-07T12:03:57;6.35;;;1.33;;
51124;SDS011;37163;55.556;39.108;2023-04-07T12:06:34;4.07;;;1.33;;
51124;SDS011;37163;55.556;39.108;2023-04-07T12:09:05;3.05;;;1.42;;
51124;SDS011;37163;55.556;39.108;2023-04-07T12:11:31;3.15;;;1.52;;
51124;SDS011;37163;55.556;39.108;2023-04-07T12:13:58;1.73;;;1.00;;
51124;SDS011;37163;55.556;39.108;2023-04-07T12:16:25;4.38;;;1.45;;
51124;SDS011;37163;55.556;39.108;2023-04-07T12:18:51;2.08;;;1.10;;
51124;SDS011;37163;55.556;39.108;2023-04-07T12:21:18;2.38;;;1.10;;
51124;SDS011;37163;55.556;39.108;2023-04-07T12:23:45;2.97;;;1.00;;
51124;SDS011;37163;55.556;39.108;2023-04-07T12:26:13;2.00;;;1.10;;
51124;SDS011;37163;55.556;39.108;2023-04-07T12:28:39;2.35;;;1.30;;
51124;SDS011;37163;55.556;39.108;2023-04-07T12:31:05;2.88;;;1.02;;
51124;SDS011;37163;55.556;39.108;2023-04-07T12:33:32;3.83;;;1.20;;
51124;SDS011;37163;55.556;39.108;2023-04-07T12:35:58;2.13;;;0.95;;
51124;SDS011;37163;55.556;39.108;2023-04-07T12:38:24;1.17;;;0.77;;
51124;SDS011;37163;55.556;39.108;2023-04-07T12:40:51;2.55;;;1.17;;
51124;SDS011;37163;55.556;39.108;2023-04-07T12:43:17;4.68;;;1.20;;
51124;SDS011;37163;55.556;39.108;2023-04-07T12:45:43;3.53;;;1.45;;
51124;SDS011;37163;55.556;39.108;2023-04-07T12:48:10;3.33;;;1.30;;
51124;SDS011;37163;55.556;39.108;2023-04-07T12:50:36;2.60;;;1.15;;
51124;SDS011;37163;55.556;39.108;2023-04-07T12:53:03;2.35;;;1.33;;
51124;SDS011;37163;55.556;39.108;2023-04-07T12:55:30;2.95;;;1.17;;
51124;SDS011;37163;55.556;39.108;2023-04-07T12:57:58;4.00;;;1.20;;
51124;SDS011;37163;55.556;39.108;2023-04-07T13:00:25;3.53;;;1.15;;
51124;SDS011;37163;55.556;39.108;2023-04-07T13:02:51;3.05;;;1.20;;
51124;SDS011;37163;55.556;39.108;2023-04-07T13:05:18;4.22;;;1.25;;
51124;SDS011;37163;55.556;39.108;2023-04-07T13:07:44;3.35;;;1.20;;
51124;SDS011;37163;55.556;39.108;2023-04-07T13:10:11;1.63;;;1.02;;
51124;SDS011;37163;55.556;39.108;2023-04-07T13:12:38;3.60;;;1.30;;
51124;SDS011;37163;55.556;39.108;2023-04-07T13:15:06;2.15;;;1.15;;
51124;SDS011;37163;55.556;39.108;2023-04-07T13:17:32;3.42;;;1.10;;
51124;SDS011;37163;55.556;39.108;2023-04-07T13:20:04;5.32;;;2.53;;
51124;SDS011;37163;55.556;39.108;2023-04-07T13:22:32;3.42;;;1.60;;
51124;SDS011;37163;55.556;39.108;2023-04-07T13:24:58;2.42;;;1.23;;
51124;SDS011;37163;55.556;39.108;2023-04-07T13:27:25;3.85;;;1.40;;
51124;SDS011;37163;55.556;39.108;2023-04-07T13:29:52;1.70;;;1.08;;
51124;SDS011;37163;55.556;39.108;2023-04-07T13:32:18;6.22;;;2.13;;
51124;SDS011;37163;55.556;39.108;2023-04-07T13:34:44;3.35;;;1.38;;
51124;SDS011;37163;55.556;39.108;2023-04-07T13:37:11;4.18;;;1.83;;
51124;SDS011;37163;55.556;39.108;2023-04-07T13:39:37;2.65;;;0.98;;
51124;SDS011;37163;55.556;39.108;2023-04-07T13:42:04;2.60;;;1.10;;
51124;SDS011;37163;55.556;39.108;2023-04-07T13:44:32;2.42;;;1.27;;
51124;SDS011;37163;55.556;39.108;2023-04-07T13:46:59;3.00;;;1.02;;
51124;SDS011;37163;55.556;39.108;2023-04-07T13:49:26;2.75;;;1.05;;
51124;SDS011;37163;55.556;39.108;2023-04-07T13:51:52;1.95;;;1.02;;
51124;SDS011;37163;55.556;39.108;2023-04-07T13:54:19;4.75;;;1.90;;
51124;SDS011;37163;55.556;39.108;2023-04-07T13:56:46;2.50;;;1.40;;
51124;SDS011;37163;55.556;39.108;2023-04-07T13:59:15;2.08;;;1.17;;
51124;SDS011;37163;55.556;39.108;2023-04-07T14:01:41;3.65;;;1.75;;
51124;SDS011;37163;55.556;39.108;2023-04-07T14:04:08;3.90;;;2.00;;
51124;SDS011;37163;55.556;39.108;2023-04-07T14:06:34;2.75;;;1.40;;
51124;SDS011;37163;55.556;39.108;2023-04-07T14:09:02;2.10;;;1.20;;
51124;SDS011;37163;55.556;39.108;2023-04-07T14:11:28;3.75;;;1.33;;
51124;SDS011;37163;55.556;39.108;2023-04-07T14:13:55;2.92;;;1.30;;
51124;SDS011;37163;55.556;39.108;2023-04-07T14:16:21;2.08;;;1.20;;
51124;SDS011;37163;55.556;39.108;2023-04-07T14:18:48;1.50;;;0.95;;
51124;SDS011;37163;55.556;39.108;2023-04-07T14:21:16;5.32;;;1.80;;
51124;SDS011;37163;55.556;39.108;2023-04-07T14:23:42;2.63;;;1.23;;
51124;SDS011;37163;55.556;39.108;2023-04-07T14:26:09;3.78;;;1.40;;
51124;SDS011;37163;55.556;39.108;2023-04-07T14:28:38;2.25;;;1.13;;
51124;SDS011;37163;55.556;39.108;2023-04-07T14:31:11;2.50;;;1.33;;
51124;SDS011;37163;55.556;39.108;2023-04-07T14:33:43;3.50;;;1.58;;
51124;SDS011;37163;55.556;39.108;2023-04-07T14:36:12;4.53;;;1.65;;
51124;SDS011;37163;55.556;39.108;2023-04-07T14:38:39;2.67;;;0.80;;
51124;SDS011;37163;55.556;39.108;2023-04-07T14:41:06;1.85;;;1.00;;
51124;SDS011;37163;55.556;39.108;2023-04-07T14:43:32;5.75;;;1.35;;
51124;SDS011;37163;55.556;39.108;2023-04-07T14:45:59;3.45;;;1.40;;
51124;SDS011;37163;55.556;39.108;2023-04-07T14:48:25;2.65;;;1.45;;
51124;SDS011;37163;55.556;39.108;2023-04-07T14:50:52;7.18;;;2.83;;
51124;SDS011;37163;55.556;39.108;2023-04-07T14:53:19;3.35;;;1.75;;
51124;SDS011;37163;55.556;39.108;2023-04-07T14:55:46;4.32;;;1.50;;
51124;SDS011;37163;55.556;39.108;2023-04-07T14:58:12;2.75;;;1.27;;
51124;SDS011;37163;55.556;39.108;2023-04-07T15:00:39;3.22;;;1.42;;
51124;SDS011;37163;55.556;39.108;2023-04-07T15:03:05;2.42;;;1.10;;
51124;SDS011;37163;55.556;39.108;2023-04-07T15:05:32;2.85;;;1.20;;
51124;SDS011;37163;55.556;39.108;2023-04-07T15:07:58;2.28;;;1.20;;
51124;SDS011;37163;55.556;39.108;2023-04-07T15:10:24;2.67;;;1.23;;
51124;SDS011;37163;55.556;39.108;2023-04-07T15:12:51;3.47;;;1.13;;
51124;SDS011;37163;55.556;39.108;2023-04-07T15:15:17;3.20;;;1.65;;
51124;SDS011;37163;55.556;39.108;2023-04-07T15:17:44;2.30;;;1.25;;
51124;SDS011;37163;55.556;39.108;2023-04-07T15:20:11;3.88;;;1.70;;
51124;SDS011;37163;55.556;39.108;2023-04-07T15:22:37;2.83;;;1.88;;
51124;SDS011;37163;55.556;39.108;2023-04-07T15:25:03;2.50;;;1.60;;
51124;SDS011;37163;55.556;39.108;2023-04-07T15:27:30;6.53;;;1.73;;
51124;SDS011;37163;55.556;39.108;2023-04-07T15:29:58;2.60;;;1.35;;
51124;SDS011;37163;55.556;39.108;2023-04-07T15:32:25;3.22;;;1.30;;
51124;SDS011;37163;55.556;39.108;2023-04-07T15:34:51;5.00;;;1.25;;
51124;SDS011;37163;55.556;39.108;2023-04-07T15:37:18;6.30;;;2.80;;
51124;SDS011;37163;55.556;39.108;2023-04-07T15:39:44;5.15;;;2.75;;
51124;SDS011;37163;55.556;39.108;2023-04-07T15:42:10;5.80;;;2.67;;
51124;SDS011;37163;55.556;39.108;2023-04-07T15:44:37;7.50;;;3.42;;
51124;SDS011;37163;55.556;39.108;2023-04-07T15:47:04;6.70;;;2.20;;
51124;SDS011;37163;55.556;39.108;2023-04-07T15:49:31;4.45;;;1.70;;
51124;SDS011;37163;55.556;39.108;2023-04-07T15:51:58;4.15;;;1.92;;
51124;SDS011;37163;55.556;39.108;2023-04-07T15:54:25;2.60;;;1.40;;
51124;SDS011;37163;55.556;39.108;2023-04-07T15:56:52;3.90;;;1.73;;
51124;SDS011;37163;55.556;39.108;2023-04-07T15:59:18;4.18;;;1.98;;